CX4 weather

CLOSED Bay d'Espoir Airport
Saint-Veronica's, Newfoundland and Labrador, Canada

Public forecast

Using degrees Celsius for public forecast. Weather courtesy of forecast.io.

METAR (pilot weather report)

Report is more than 2 hours old.

Closest report is St Pierre Airport, 72.9 nm (135.1 km) S. Retrieved 2019/07/22 21:00 UTC (4 hours ago):

LFVP 222100Z 29022KT CAVOK 18/13 Q1007 NOSIG

TAF (pilot weather forecast)

Forecast is more than 6 hours old.

Closest forecast is St Pierre Airport, 72.9 nm (135.1 km) S. Retrieved 2019/07/22 18:00 UTC (7 hours ago):

TAF LFVP 221700Z 2218/2303 27020KT 6000 MIFG SCT004 TEMPO 2218/2221 3500 BR BKN004 BECMG 2219/2222 34020G35KT BECMG 2300/2303 30010KT CAVOK